world map with DIB marked

DIB - Airport

This information may not be accurate or current and is not valid for navigation or flight planning. No warranty of fitness for any purpose is made or implied.

flag of India

Donate via PayPal

Additional information is available on the NEW Great Circle Mapper

Location
City:  Dibrugarh, Assam, India
Near (Alt.):Mohanbari
Name:Chabua
ICAO / IATA:VEMN / DIB

Details
Type:Airport (Aerodrome, Airfield)
Use:Public/Civil, Military
Latitude:27°29'02"N (27.483853)
Longitude:95°01'01"E (95.016922)
Datum:WGS 1984
Elevation:362 ft (110 m)
Runways:1
Longest:6000 × 148 ft (1829 × 45 m)

Time
Timezone:UTC+5:30 (DST+7:30)
Local Time:

Weather
METAR:VEMN  151100Z 00000KT 3000 HZ SCT100 22/19 Q1015 NOSIG

Related Locations
Nearby:
Farthest:SCFX: 12133 mi / 19526 km
Isla San Félix, Desventuradas Islands, VS, CL

Find:

   beyond  
but within

Other Information
Maps:
Sources:

  


 


Great Circle Mapper   Great Circle Mapper
Great Circle Mapper FAQ   Great Circle Mapper FAQ
  Karl's Home Page
KLS²   KLS² Home
   GC on Facebook
Airlines of the World   Airlines of the World
Donate via PayPal


Copyright © 2004-2017, Karl L. Swartz. All rights reserved.
All trademarks mentioned herein belong to their respective owners.

Please see credits for attribution and copyright information.

Karl Swartz <karl@kls2.com>
  Powered by FreeBSD
Valid HTML 4.01!
Labeled with ICRA
hCard Microformat
Geo Microformat